Observation data for Knox City on 07/18/2019      Previous  Date  Next       Current Mesonet Observations  Soil Data  Daily Summary Page  Observations in Plain Language
KKN1 180500Z 16012KT 30/18 A2992 RMK A01 T02970183  RH  053%=      5-min Rain = 0
KKN1 180505Z 15013KT 30/18 A2992 RMK A01 T02960183  RH  053%=      5-min Rain = 0
KKN1 180510Z 16013KT 30/18 A2992 RMK A01 T02960183  RH  054%=      5-min Rain = 0
KKN1 180515Z 15014KT 30/18 A2992 RMK A01 T02960184  RH  054%=      5-min Rain = 0
KKN1 180520Z 16012KT 29/18 A2992 RMK A01 T02940184  RH  054%=      5-min Rain = 0
KKN1 180525Z 16012KT 29/18 A2992 RMK A01 T02930184  RH  055%=      5-min Rain = 0
KKN1 180530Z 15012KT 29/18 A2992 RMK A01 T02920184  RH  055%=      5-min Rain = 0
KKN1 180535Z 16012KT 29/18 A2992 RMK A01 T02910184  RH  055%=      5-min Rain = 0
KKN1 180540Z 15012KT 29/18 A2992 RMK A01 T02910184  RH  055%=      5-min Rain = 0
KKN1 180545Z 15012KT 29/18 A2992 RMK A01 T02900184  RH  056%=      5-min Rain = 0
KKN1 180550Z 15012KT 29/18 A2992 RMK A01 T02890184  RH  056%=      5-min Rain = 0
KKN1 180555Z 16013KT 29/18 A2992 RMK A01 T02890184  RH  056%=      5-min Rain = 0
KKN1 180600Z 15012KT 29/18 A2992 RMK A01 T02890184  RH  056%=      5-min Rain = 0
KKN1 180605Z 16012KT 29/18 A2992 RMK A01 T02890184  RH  056%=      5-min Rain = 0
KKN1 180610Z 16012KT 29/18 A2992 RMK A01 T02880184  RH  056%=      5-min Rain = 0
KKN1 180615Z 16012G17KT 29/18 A2992 RMK A01 T02870184  RH  057%=      5-min Rain = 0
KKN1 180620Z 16012KT 29/18 A2992 RMK A01 T02870184  RH  057%=      5-min Rain = 0
KKN1 180625Z 15013KT 29/18 A2992 RMK A01 T02870184  RH  057%=      5-min Rain = 0
KKN1 180630Z 16013G18KT 29/19 A2992 RMK A01 T02880185  RH  057%=      5-min Rain = 0
KKN1 180635Z 16014KT 29/19 A2992 RMK A01 T02880185  RH  057%=      5-min Rain = 0
KKN1 180640Z 16013KT 29/19 A2992 RMK A01 T02880185  RH  057%=      5-min Rain = 0
KKN1 180645Z 16013KT 29/19 A2992 RMK A01 T02870185  RH  057%=      5-min Rain = 0
KKN1 180650Z 16014KT 29/19 A2992 RMK A01 T02880186  RH  057%=      5-min Rain = 0
KKN1 180655Z 16013KT 29/19 A2992 RMK A01 T02870186  RH  057%=      5-min Rain = 0
KKN1 180700Z 16012KT 29/19 A2992 RMK A01 T02860186  RH  058%=      5-min Rain = 0
KKN1 180705Z 16013KT 29/19 A2992 RMK A01 T02860186  RH  058%=      5-min Rain = 0
KKN1 180710Z 16013KT 29/19 A2992 RMK A01 T02860186  RH  058%=      5-min Rain = 0
KKN1 180715Z 16012G17KT 29/19 A2992 RMK A01 T02850186  RH  058%=      5-min Rain = 0
KKN1 180720Z 16012G17KT 28/19 A2992 RMK A01 T02840186  RH  058%=      5-min Rain = 0
KKN1 180725Z 16013KT 28/19 A2992 RMK A01 T02840186  RH  058%=      5-min Rain = 0
KKN1 180730Z 16012KT 28/19 A2992 RMK A01 T02840186  RH  059%=      5-min Rain = 0
KKN1 180735Z 16013KT 28/19 A2992 RMK A01 T02830186  RH  059%=      5-min Rain = 0
KKN1 180740Z 16012KT 28/19 A2992 RMK A01 T02830186  RH  059%=      5-min Rain = 0
KKN1 180745Z 16012KT 28/19 A2992 RMK A01 T02820187  RH  059%=      5-min Rain = 0
KKN1 180750Z 16013KT 28/19 A2992 RMK A01 T02820187  RH  060%=      5-min Rain = 0
KKN1 180755Z 16012G17KT 28/19 A2992 RMK A01 T02810187  RH  060%=      5-min Rain = 0
KKN1 180800Z 16012KT 28/19 A2992 RMK A01 T02800187  RH  060%=      5-min Rain = 0
KKN1 180805Z 16013KT 28/19 A2992 RMK A01 T02800187  RH  060%=      5-min Rain = 0
KKN1 180810Z 16013KT 28/19 A2992 RMK A01 T02790187  RH  060%=      5-min Rain = 0
KKN1 180815Z 16013KT 28/19 A2992 RMK A01 T02790188  RH  061%=      5-min Rain = 0
KKN1 180820Z 16012G17KT 28/19 A2992 RMK A01 T02790188  RH  061%=      5-min Rain = 0
KKN1 180825Z 17013KT 28/19 A2992 RMK A01 T02780188  RH  061%=      5-min Rain = 0
KKN1 180830Z 16013KT 28/19 A2992 RMK A01 T02780188  RH  061%=      5-min Rain = 0
KKN1 180835Z 16013KT 28/19 A2992 RMK A01 T02770188  RH  061%=      5-min Rain = 0
KKN1 180840Z 17012KT 28/19 A2992 RMK A01 T02760188  RH  062%=      5-min Rain = 0
KKN1 180845Z 17013KT 28/19 A2992 RMK A01 T02760188  RH  062%=      5-min Rain = 0
KKN1 180850Z 16012KT 28/19 A2992 RMK A01 T02760188  RH  062%=      5-min Rain = 0
KKN1 180855Z 16012KT 28/19 A2992 RMK A01 T02750188  RH  062%=      5-min Rain = 0
KKN1 180900Z 17012KT 28/19 A2992 RMK A01 T02750188  RH  062%=      5-min Rain = 0
KKN1 180905Z 17012KT 27/19 A2992 RMK A01 T02740188  RH  063%=      5-min Rain = 0
KKN1 180910Z 17013KT 27/19 A2992 RMK A01 T02730189  RH  063%=      5-min Rain = 0
KKN1 180915Z 17012KT 27/19 A2992 RMK A01 T02730189  RH  064%=      5-min Rain = 0
KKN1 180920Z 17012KT 27/19 A2992 RMK A01 T02720190  RH  064%=      5-min Rain = 0
KKN1 180925Z 17012G18KT 27/19 A2992 RMK A01 T02720190  RH  065%=      5-min Rain = 0
KKN1 180930Z 17011KT 27/19 A2992 RMK A01 T02720191  RH  065%=      5-min Rain = 0
KKN1 180935Z 17012KT 27/19 A2992 RMK A01 T02710191  RH  065%=      5-min Rain = 0
KKN1 180940Z 17013KT 27/19 A2992 RMK A01 T02710192  RH  065%=      5-min Rain = 0
KKN1 180945Z 17011KT 27/19 A2992 RMK A01 T02710193  RH  066%=      5-min Rain = 0
KKN1 180950Z 17012KT 27/19 A2992 RMK A01 T02710193  RH  066%=      5-min Rain = 0
KKN1 180955Z 18011KT 27/19 A2993 RMK A01 T02700194  RH  067%=      5-min Rain = 0
KKN1 181000Z 17011KT 27/20 A2993 RMK A01 T02710195  RH  067%=      5-min Rain = 0
KKN1 181005Z 18012G17KT 27/20 A2993 RMK A01 T02710196  RH  067%=      5-min Rain = 0
KKN1 181010Z 18010KT 27/20 A2993 RMK A01 T02720197  RH  067%=      5-min Rain = 0
KKN1 181015Z 19010KT 27/20 A2993 RMK A01 T02720198  RH  068%=      5-min Rain = 0
KKN1 181020Z 20007KT 27/20 A2994 RMK A01 T02710198  RH  068%=      5-min Rain = 0
KKN1 181025Z 21007KT 27/20 A2994 RMK A01 T02710199  RH  068%=      5-min Rain = 0
KKN1 181030Z 20008KT 27/20 A2994 RMK A01 T02710199  RH  069%=      5-min Rain = 0
KKN1 181035Z 20007KT 27/20 A2995 RMK A01 T02700198  RH  069%=      5-min Rain = 0
KKN1 181040Z 19009KT 27/20 A2995 RMK A01 T02700199  RH  069%=      5-min Rain = 0
KKN1 181045Z 19008KT 27/20 A2995 RMK A01 T02700199  RH  069%=      5-min Rain = 0
KKN1 181050Z 18009KT 27/20 A2994 RMK A01 T02690199  RH  069%=      5-min Rain = 0
KKN1 181055Z 18009KT 27/20 A2995 RMK A01 T02680199  RH  070%=      5-min Rain = 0
KKN1 181100Z 19008KT 27/20 A2995 RMK A01 T02660198  RH  070%=      5-min Rain = 0
KKN1 181105Z 18010KT 27/20 A2995 RMK A01 T02670199  RH  070%=      5-min Rain = 0
KKN1 181110Z 19010KT 27/20 A2995 RMK A01 T02670198  RH  070%=      5-min Rain = 0
KKN1 181115Z 18009KT 27/20 A2995 RMK A01 T02660198  RH  070%=      5-min Rain = 0
KKN1 181120Z 18010KT 27/20 A2995 RMK A01 T02650199  RH  071%=      5-min Rain = 0
KKN1 181125Z 18009KT 27/20 A2995 RMK A01 T02650199  RH  071%=      5-min Rain = 0
KKN1 181130Z 18009KT 26/20 A2995 RMK A01 T02640199  RH  071%=      5-min Rain = 0
KKN1 181135Z 18009KT 26/20 A2994 RMK A01 T02630199  RH  072%=      5-min Rain = 0
KKN1 181140Z 17010KT 26/20 A2994 RMK A01 T02630199  RH  072%=      5-min Rain = 0
KKN1 181145Z 18009KT 26/20 A2994 RMK A01 T02620199  RH  072%=      5-min Rain = 0
KKN1 181200Z 18009KT 26/20 A2995 RMK A01 T02620199  RH  073%=      5-min Rain = 0
KKN1 181205Z 18009KT 26/20 A2995 RMK A01 T02620200  RH  073%=      5-min Rain = 0
KKN1 181210Z 18008KT 26/20 A2995 RMK A01 T02630200  RH  072%=      5-min Rain = 0
KKN1 181215Z 18009KT 26/20 A2995 RMK A01 T02630200  RH  072%=      5-min Rain = 0
KKN1 181220Z 18009KT 26/20 A2995 RMK A01 T02640201  RH  072%=      5-min Rain = 0
KKN1 181225Z 19010KT 27/20 A2995 RMK A01 T02650201  RH  072%=      5-min Rain = 0
KKN1 181230Z 20009KT 27/20 A2995 RMK A01 T02670202  RH  072%=      5-min Rain = 0
KKN1 181235Z 19010KT 27/20 A2995 RMK A01 T02680202  RH  072%=      5-min Rain = 0
KKN1 181240Z 18009KT 27/20 A2995 RMK A01 T02690203  RH  071%=      5-min Rain = 0
KKN1 181245Z 18012KT 27/20 A2995 RMK A01 T02700204  RH  071%=      5-min Rain = 0
KKN1 181250Z 18011KT 27/21 A2995 RMK A01 T02720205  RH  071%=      5-min Rain = 0
KKN1 181255Z 18013KT 27/21 A2995 RMK A01 T02730205  RH  071%=      5-min Rain = 0
KKN1 181300Z 18012KT 27/21 A2995 RMK A01 T02740206  RH  070%=      5-min Rain = 0
KKN1 181305Z 18012KT 28/21 A2995 RMK A01 T02750206  RH  070%=      5-min Rain = 0
KKN1 181310Z 18012KT 28/21 A2995 RMK A01 T02760206  RH  070%=      5-min Rain = 0
KKN1 181315Z 19012KT 28/21 A2996 RMK A01 T02780207  RH  069%=      5-min Rain = 0
KKN1 181320Z 19014KT 28/21 A2996 RMK A01 T02790207  RH  069%=      5-min Rain = 0
KKN1 181325Z 18013KT 28/21 A2995 RMK A01 T02810207  RH  068%=      5-min Rain = 0
KKN1 181330Z 19016G21KT 28/21 A2995 RMK A01 T02810207  RH  068%=      5-min Rain = 0
KKN1 181335Z 18015G20KT 28/21 A2995 RMK A01 T02830208  RH  068%=      5-min Rain = 0
KKN1 181340Z 19017G23KT 28/21 A2995 RMK A01 T02830208  RH  068%=      5-min Rain = 0
KKN1 181345Z 19017KT 28/21 A2995 RMK A01 T02840208  RH  067%=      5-min Rain = 0
KKN1 181350Z 19016KT 29/21 A2995 RMK A01 T02860208  RH  067%=      5-min Rain = 0
KKN1 181355Z 19019KT 29/21 A2995 RMK A01 T02870208  RH  066%=      5-min Rain = 0
KKN1 181400Z 18017KT 29/21 A2995 RMK A01 T02890208  RH  065%=      5-min Rain = 0
KKN1 181405Z 18015KT 29/21 A2995 RMK A01 T02910209  RH  065%=      5-min Rain = 0
KKN1 181410Z 19018G23KT 29/21 A2995 RMK A01 T02930208  RH  064%=      5-min Rain = 0
KKN1 181415Z 19018G24KT 30/21 A2995 RMK A01 T02950208  RH  063%=      5-min Rain = 0
KKN1 181420Z 19017G23KT 30/21 A2995 RMK A01 T02980208  RH  062%=      5-min Rain = 0
KKN1 181425Z 19018KT 30/21 A2995 RMK A01 T02990208  RH  062%=      5-min Rain = 0
KKN1 181430Z 19017G22KT 30/21 A2994 RMK A01 T03020209  RH  061%=      5-min Rain = 0
KKN1 181435Z 19019KT 30/21 A2994 RMK A01 T03040208  RH  060%=      5-min Rain = 0
KKN1 181440Z 19019G26KT 30/21 A2994 RMK A01 T03030208  RH  060%=      5-min Rain = 0
KKN1 181445Z 19017KT 31/21 A2994 RMK A01 T03070209  RH  059%=      5-min Rain = 0
KKN1 181450Z 19020G25KT 31/21 A2994 RMK A01 T03070208  RH  059%=      5-min Rain = 0
KKN1 181455Z 19017KT 31/21 A2994 RMK A01 T03110209  RH  058%=      5-min Rain = 0
KKN1 181500Z 19019KT 31/21 A2994 RMK A01 T03110209  RH  058%=      5-min Rain = 0
KKN1 181505Z 19018G24KT 31/21 A2994 RMK A01 T03110208  RH  058%=      5-min Rain = 0
KKN1 181510Z 18017G24KT 32/21 A2994 RMK A01 T03150209  RH  057%=      5-min Rain = 0
KKN1 181515Z 19018KT 32/21 A2994 RMK A01 T03180208  RH  056%=      5-min Rain = 0
KKN1 181520Z 19018KT 32/21 A2994 RMK A01 T03180208  RH  055%=      5-min Rain = 0
KKN1 181525Z 19019KT 32/21 A2994 RMK A01 T03170207  RH  055%=      5-min Rain = 0
KKN1 181530Z 18019KT 32/21 A2994 RMK A01 T03190207  RH  055%=      5-min Rain = 0
KKN1 181535Z 19017G22KT 32/21 A2994 RMK A01 T03210208  RH  054%=      5-min Rain = 0
KKN1 181540Z 19018G23KT 32/21 A2994 RMK A01 T03230207  RH  054%=      5-min Rain = 0
KKN1 181545Z 19018G23KT 32/21 A2994 RMK A01 T03240207  RH  053%=      5-min Rain = 0
KKN1 181550Z 18019G25KT 33/21 A2993 RMK A01 T03250207  RH  053%=      5-min Rain = 0
KKN1 181555Z 18016G26KT 33/21 A2994 RMK A01 T03300208  RH  052%=      5-min Rain = 0
KKN1 181600Z 19017KT 33/21 A2993 RMK A01 T03290207  RH  052%=      5-min Rain = 0
KKN1 181605Z 18018KT 33/21 A2994 RMK A01 T03300207  RH  052%=      5-min Rain = 0
KKN1 181610Z 19017G23KT 33/21 A2993 RMK A01 T03340207  RH  050%=      5-min Rain = 0
KKN1 181615Z 19019G24KT 33/21 A2993 RMK A01 T03330206  RH  050%=      5-min Rain = 0
KKN1 181620Z 19017G23KT 33/21 A2993 RMK A01 T03330205  RH  050%=      5-min Rain = 0
KKN1 181625Z 20019G25KT 34/20 A2993 RMK A01 T03380204  RH  048%=      5-min Rain = 0
KKN1 181630Z 20017G22KT 34/20 A2993 RMK A01 T03380204  RH  048%=      5-min Rain = 0
KKN1 181635Z 19017G22KT 34/21 A2993 RMK A01 T03410205  RH  048%=      5-min Rain = 0
KKN1 181640Z 19015G21KT 35/21 A2993 RMK A01 T03490206  RH  046%=      5-min Rain = 0
KKN1 181645Z 21016KT 34/20 A2993 RMK A01 T03440204  RH  047%=      5-min Rain = 0
KKN1 181650Z 20019G25KT 35/20 A2993 RMK A01 T03480203  RH  045%=      5-min Rain = 0
KKN1 181655Z 20018G23KT 35/20 A2992 RMK A01 T03450201  RH  046%=      5-min Rain = 0
KKN1 181700Z 20018G23KT 35/20 A2992 RMK A01 T03470203  RH  046%=      5-min Rain = 0
KKN1 181705Z 19017G24KT 35/20 A2992 RMK A01 T03510204  RH  045%=      5-min Rain = 0
KKN1 181710Z 19017G24KT 35/20 A2992 RMK A01 T03520200  RH  044%=      5-min Rain = 0
KKN1 181715Z 19017G23KT 35/20 A2992 RMK A01 T03520203  RH  044%=      5-min Rain = 0
KKN1 181720Z 20017G23KT 36/20 A2992 RMK A01 T03550203  RH  044%=      5-min Rain = 0
KKN1 181725Z 19019KT 36/20 A2991 RMK A01 T03560201  RH  043%=      5-min Rain = 0
KKN1 181730Z 19018G25KT 35/20 A2991 RMK A01 T03540201  RH  043%=      5-min Rain = 0
KKN1 181735Z 20016G22KT 36/20 A2991 RMK A01 T03560201  RH  043%=      5-min Rain = 0
KKN1 181740Z 19016G24KT 36/20 A2991 RMK A01 T03600202  RH  042%=      5-min Rain = 0
KKN1 181745Z 18018G23KT 36/20 A2991 RMK A01 T03590201  RH  042%=      5-min Rain = 0
KKN1 181750Z 19014G19KT 36/20 A2991 RMK A01 T03590201  RH  042%=      5-min Rain = 0
KKN1 181755Z 19017G24KT 36/20 A2991 RMK A01 T03620200  RH  041%=      5-min Rain = 0
KKN1 181800Z 18015G21KT 36/20 A2991 RMK A01 T03620201  RH  041%=      5-min Rain = 0
KKN1 181805Z 20018G23KT 37/20 A299 RMK A01 T03650202  RH  041%=      5-min Rain = 0
KKN1 181810Z 19019G25KT 37/20 A299 RMK A01 T03680200  RH  040%=      5-min Rain = 0
KKN1 181815Z 18015G22KT 36/20 A299 RMK A01 T03630200  RH  041%=      5-min Rain = 0
KKN1 181820Z 19017G24KT 36/20 A299 RMK A01 T03640201  RH  041%=      5-min Rain = 0
KKN1 181825Z 19017G26KT 37/20 A299 RMK A01 T03650202  RH  041%=      5-min Rain = 0
KKN1 181830Z 20017G22KT 37/20 A299 RMK A01 T03680200  RH  040%=      5-min Rain = 0
KKN1 181835Z 20016G22KT 37/20 A299 RMK A01 T03690199  RH  039%=      5-min Rain = 0
KKN1 181840Z 19016G23KT 37/20 A2989 RMK A01 T03700200  RH  040%=      5-min Rain = 0
KKN1 181845Z 19017G23KT 37/20 A2989 RMK A01 T03720198  RH  039%=      5-min Rain = 0
KKN1 181850Z 19018G23KT 37/20 A2989 RMK A01 T03710197  RH  038%=      5-min Rain = 0
KKN1 181855Z 19015G20KT 37/20 A2989 RMK A01 T03720200  RH  039%=      5-min Rain = 0
KKN1 181900Z 19017G22KT 38/20 A2988 RMK A01 T03760200  RH  038%=      5-min Rain = 0
KKN1 181905Z 18018G24KT 38/20 A2988 RMK A01 T03750199  RH  038%=      5-min Rain = 0
KKN1 181910Z 18016G23KT 38/20 A2988 RMK A01 T03760199  RH  038%=      5-min Rain = 0
KKN1 181915Z 17018G25KT 38/20 A2988 RMK A01 T03750199  RH  038%=      5-min Rain = 0
KKN1 181920Z 18018G24KT 38/20 A2988 RMK A01 T03750199  RH  038%=      5-min Rain = 0
KKN1 181925Z 18017KT 38/20 A2987 RMK A01 T03770197  RH  037%=      5-min Rain = 0
KKN1 181930Z 19018G23KT 38/20 A2987 RMK A01 T03780196  RH  037%=      5-min Rain = 0
KKN1 181935Z 18017G22KT 38/20 A2987 RMK A01 T03770197  RH  037%=      5-min Rain = 0
KKN1 181940Z 18019G25KT 38/20 A2987 RMK A01 T03790198  RH  037%=      5-min Rain = 0
KKN1 181945Z 17017G24KT 38/20 A2987 RMK A01 T03800197  RH  037%=      5-min Rain = 0
KKN1 181950Z 17020G25KT 38/19 A2987 RMK A01 T03830194  RH  035%=      5-min Rain = 0
KKN1 181955Z 18018G23KT 38/19 A2987 RMK A01 T03840192  RH  035%=      5-min Rain = 0
KKN1 182000Z 18018G23KT 38/19 A2986 RMK A01 T03830192  RH  035%=      5-min Rain = 0
KKN1 182005Z 17016G21KT 39/20 A2986 RMK A01 T03870195  RH  035%=      5-min Rain = 0
KKN1 182010Z 18016G24KT 39/20 A2986 RMK A01 T03870196  RH  035%=      5-min Rain = 0
KKN1 182015Z 18018G25KT 39/20 A2986 RMK A01 T03900195  RH  034%=      5-min Rain = 0
KKN1 182020Z 18018G23KT 39/19 A2986 RMK A01 T03900190  RH  033%=      5-min Rain = 0
KKN1 182025Z 19018KT 39/19 A2986 RMK A01 T03860192  RH  034%=      5-min Rain = 0
KKN1 182030Z 18018G24KT 39/19 A2985 RMK A01 T03860190  RH  034%=      5-min Rain = 0
KKN1 182035Z 17018G26KT 39/19 A2985 RMK A01 T03870187  RH  033%=      5-min Rain = 0
KKN1 182040Z 18016G21KT 39/19 A2985 RMK A01 T03910185  RH  032%=      5-min Rain = 0
KKN1 182045Z 18018G26KT 39/19 A2985 RMK A01 T03880190  RH  034%=      5-min Rain = 0
KKN1 182050Z 18019G24KT 39/19 A2985 RMK A01 T03880186  RH  033%=      5-min Rain = 0
KKN1 182055Z 18017KT 39/19 A2985 RMK A01 T03900187  RH  033%=      5-min Rain = 0
KKN1 182100Z 18018G24KT 39/19 A2985 RMK A01 T03890190  RH  033%=      5-min Rain = 0
KKN1 182105Z 17017G23KT 40/19 A2984 RMK A01 T03960190  RH  032%=      5-min Rain = 0
KKN1 182110Z 17017G24KT 40/19 A2984 RMK A01 T03970192  RH  032%=      5-min Rain = 0
KKN1 182115Z 18016G23KT 39/19 A2984 RMK A01 T03910192  RH  033%=      5-min Rain = 0
KKN1 182120Z 18017G23KT 39/19 A2984 RMK A01 T03920191  RH  033%=      5-min Rain = 0
KKN1 182125Z 18017KT 39/19 A2984 RMK A01 T03890185  RH  032%=      5-min Rain = 0
KKN1 182130Z 17019G24KT 39/19 A2983 RMK A01 T03920193  RH  033%=      5-min Rain = 0
KKN1 182135Z 17019G24KT 39/19 A2983 RMK A01 T03910191  RH  033%=      5-min Rain = 0
KKN1 182140Z 18016G21KT 39/19 A2983 RMK A01 T03860192  RH  034%=      5-min Rain = 0
KKN1 182145Z 17016G22KT 39/19 A2983 RMK A01 T03900191  RH  033%=      5-min Rain = 0
KKN1 182150Z 16018G24KT 39/19 A2983 RMK A01 T03930191  RH  033%=      5-min Rain = 0
KKN1 182155Z 17018G24KT 39/19 A2983 RMK A01 T03900190  RH  033%=      5-min Rain = 0
KKN1 182200Z 18016G22KT 39/19 A2983 RMK A01 T03880188  RH  033%=      5-min Rain = 0
KKN1 182205Z 18018G25KT 39/19 A2983 RMK A01 T03890188  RH  033%=      5-min Rain = 0
KKN1 182210Z 17018G23KT 39/19 A2983 RMK A01 T03880189  RH  033%=      5-min Rain = 0
KKN1 182215Z 18018G26KT 39/19 A2983 RMK A01 T03900189  RH  033%=      5-min Rain = 0
KKN1 182220Z 17018KT 39/19 A2983 RMK A01 T03890189  RH  033%=      5-min Rain = 0
KKN1 182225Z 17018G24KT 39/19 A2982 RMK A01 T03880189  RH  033%=      5-min Rain = 0
KKN1 182230Z 16019G24KT 39/19 A2982 RMK A01 T03870187  RH  033%=      5-min Rain = 0
KKN1 182235Z 17019G25KT 39/19 A2982 RMK A01 T03870187  RH  033%=      5-min Rain = 0
KKN1 182240Z 17018G24KT 38/19 A2982 RMK A01 T03840187  RH  034%=      5-min Rain = 0
KKN1 182245Z 16018KT 39/19 A2982 RMK A01 T03860189  RH  034%=      5-min Rain = 0
KKN1 182250Z 17018G24KT 39/19 A2981 RMK A01 T03870186  RH  033%=      5-min Rain = 0
KKN1 182255Z 17019G26KT 39/18 A2981 RMK A01 T03870184  RH  033%=      5-min Rain = 0
KKN1 182300Z 17016G22KT 39/18 A2981 RMK A01 T03890184  RH  032%=      5-min Rain = 0
KKN1 182305Z 18018G23KT 39/18 A2981 RMK A01 T03880184  RH  032%=      5-min Rain = 0
KKN1 182310Z 18018G24KT 39/18 A2981 RMK A01 T03850182  RH  032%=      5-min Rain = 0
KKN1 182315Z 17019KT 39/18 A298 RMK A01 T03880183  RH  032%=      5-min Rain = 0
KKN1 182320Z 18016G21KT 39/18 A298 RMK A01 T03860182  RH  032%=      5-min Rain = 0
KKN1 182325Z 18019G24KT 38/18 A298 RMK A01 T03830180  RH  032%=      5-min Rain = 0
KKN1 182330Z 17018KT 38/18 A298 RMK A01 T03840182  RH  033%=      5-min Rain = 0
KKN1 182335Z 18018KT 38/18 A298 RMK A01 T03830180  RH  032%=      5-min Rain = 0
KKN1 182340Z 17016KT 38/18 A298 RMK A01 T03830181  RH  032%=      5-min Rain = 0
KKN1 182345Z 18017G22KT 38/18 A298 RMK A01 T03830179  RH  032%=      5-min Rain = 0
KKN1 182350Z 18017KT 38/18 A298 RMK A01 T03810180  RH  032%=      5-min Rain = 0
KKN1 182355Z 17016KT 38/18 A298 RMK A01 T03810181  RH  033%=      5-min Rain = 0
KKN1 190000Z 18019G25KT 38/18 A298 RMK A01 T03800180  RH  033%=      5-min Rain = 0
KKN1 190005Z 18019G24KT 38/18 A298 RMK A01 T03780180  RH  033%=      5-min Rain = 0
KKN1 190010Z 17015G20KT 38/18 A298 RMK A01 T03800181  RH  033%=      5-min Rain = 0
KKN1 190015Z 18019G24KT 38/18 A298 RMK A01 T03780180  RH  033%=      5-min Rain = 0
KKN1 190020Z 17019G26KT 38/18 A2979 RMK A01 T03760180  RH  033%=      5-min Rain = 0
KKN1 190025Z 17018G23KT 38/18 A2979 RMK A01 T03760180  RH  033%=      5-min Rain = 0
KKN1 190030Z 17017G23KT 38/18 A2979 RMK A01 T03750179  RH  034%=      5-min Rain = 0
KKN1 190035Z 17017KT 37/18 A2979 RMK A01 T03740180  RH  034%=      5-min Rain = 0
KKN1 190040Z 17019G25KT 37/18 A2979 RMK A01 T03720178  RH  034%=      5-min Rain = 0
KKN1 190045Z 16018G23KT 37/18 A2979 RMK A01 T03710178  RH  034%=      5-min Rain = 0
KKN1 190050Z 16017G24KT 37/18 A298 RMK A01 T03690179  RH  035%=      5-min Rain = 0
KKN1 190055Z 16017G22KT 37/18 A298 RMK A01 T03680178  RH  034%=      5-min Rain = 0
KKN1 190100Z 16016G22KT 37/18 A298 RMK A01 T03670177  RH  035%=      5-min Rain = 0
KKN1 190105Z 17016KT 37/18 A298 RMK A01 T03650178  RH  035%=      5-min Rain = 0
KKN1 190110Z 17016KT 36/18 A298 RMK A01 T03640179  RH  035%=      5-min Rain = 0
KKN1 190115Z 16014G21KT 36/18 A2981 RMK A01 T03620180  RH  036%=      5-min Rain = 0
KKN1 190120Z 16014KT 36/18 A2981 RMK A01 T03600180  RH  037%=      5-min Rain = 0
KKN1 190125Z 16014KT 36/18 A2981 RMK A01 T03580182  RH  037%=      5-min Rain = 0
KKN1 190130Z 16014KT 36/18 A2981 RMK A01 T03560182  RH  038%=      5-min Rain = 0
KKN1 190135Z 16016KT 36/18 A2981 RMK A01 T03550182  RH  038%=      5-min Rain = 0
KKN1 190140Z 16015G20KT 35/18 A2981 RMK A01 T03530181  RH  038%=      5-min Rain = 0
KKN1 190145Z 16013G18KT 35/18 A2981 RMK A01 T03510181  RH  039%=      5-min Rain = 0
KKN1 190150Z 16013KT 35/18 A2982 RMK A01 T03480182  RH  039%=      5-min Rain = 0
KKN1 190155Z 15013G18KT 35/18 A2982 RMK A01 T03460183  RH  040%=      5-min Rain = 0
KKN1 190200Z 16014G19KT 34/18 A2982 RMK A01 T03440183  RH  041%=      5-min Rain = 0
KKN1 190205Z 15014KT 34/18 A2982 RMK A01 T03430183  RH  041%=      5-min Rain = 0
KKN1 190210Z 15013KT 34/18 A2982 RMK A01 T03410182  RH  041%=      5-min Rain = 0
KKN1 190215Z 15013KT 34/18 A2982 RMK A01 T03400182  RH  041%=      5-min Rain = 0
KKN1 190220Z 15014KT 34/18 A2982 RMK A01 T03380182  RH  042%=      5-min Rain = 0
KKN1 190225Z 16013G18KT 34/18 A2982 RMK A01 T03370181  RH  042%=      5-min Rain = 0
KKN1 190230Z 16013KT 34/18 A2982 RMK A01 T03360181  RH  042%=      5-min Rain = 0
KKN1 190235Z 15013KT 34/18 A2982 RMK A01 T03350182  RH  042%=      5-min Rain = 0
KKN1 190240Z 15012KT 33/18 A2982 RMK A01 T03330182  RH  043%=      5-min Rain = 0
KKN1 190245Z 15012KT 33/18 A2982 RMK A01 T03310182  RH  044%=      5-min Rain = 0
KKN1 190250Z 15012KT 33/18 A2982 RMK A01 T03300182  RH  044%=      5-min Rain = 0
KKN1 190255Z 15011KT 33/18 A2982 RMK A01 T03280182  RH  044%=      5-min Rain = 0
KKN1 190300Z 15011KT 33/18 A2983 RMK A01 T03260182  RH  045%=      5-min Rain = 0
KKN1 190305Z 15011KT 32/18 A2983 RMK A01 T03240182  RH  045%=      5-min Rain = 0
KKN1 190310Z 15011KT 32/18 A2983 RMK A01 T03230181  RH  045%=      5-min Rain = 0
KKN1 190315Z 15011KT 32/18 A2983 RMK A01 T03220180  RH  045%=      5-min Rain = 0
KKN1 190320Z 15012KT 32/18 A2983 RMK A01 T03210179  RH  045%=      5-min Rain = 0
KKN1 190325Z 15012KT 32/18 A2984 RMK A01 T03210179  RH  045%=      5-min Rain = 0
KKN1 190330Z 15012KT 32/18 A2984 RMK A01 T03190178  RH  045%=      5-min Rain = 0
KKN1 190335Z 15012KT 32/18 A2984 RMK A01 T03180178  RH  046%=      5-min Rain = 0
KKN1 190340Z 15012KT 32/18 A2984 RMK A01 T03180178  RH  045%=      5-min Rain = 0
KKN1 190345Z 15013KT 32/18 A2984 RMK A01 T03170177  RH  045%=      5-min Rain = 0
KKN1 190350Z 15012KT 32/18 A2985 RMK A01 T03170177  RH  045%=      5-min Rain = 0
KKN1 190355Z 15012KT 32/18 A2985 RMK A01 T03160176  RH  046%=      5-min Rain = 0
KKN1 190400Z 16012KT 32/18 A2985 RMK A01 T03150176  RH  046%=      5-min Rain = 0
KKN1 190405Z 16012KT 31/18 A2985 RMK A01 T03130175  RH  046%=      5-min Rain = 0
KKN1 190410Z 15012KT 31/17 A2985 RMK A01 T03130174  RH  046%=      5-min Rain = 0
KKN1 190415Z 15011KT 31/17 A2985 RMK A01 T03120174  RH  046%=      5-min Rain = 0
KKN1 190420Z 15012KT 31/17 A2985 RMK A01 T03110173  RH  046%=      5-min Rain = 0
KKN1 190425Z 15012KT 31/17 A2985 RMK A01 T03090173  RH  046%=      5-min Rain = 0
KKN1 190430Z 16012KT 31/17 A2985 RMK A01 T03100172  RH  046%=      5-min Rain = 0
KKN1 190435Z 16013KT 31/17 A2985 RMK A01 T03100172  RH  046%=      5-min Rain = 0
KKN1 190440Z 16013KT 31/17 A2986 RMK A01 T03100171  RH  046%=      5-min Rain = 0
KKN1 190445Z 16012KT 31/17 A2986 RMK A01 T03090171  RH  046%=      5-min Rain = 0
KKN1 190450Z 16013KT 31/17 A2986 RMK A01 T03080170  RH  046%=      5-min Rain = 0
KKN1 190455Z 16012G17KT 31/17 A2986 RMK A01 T03070170  RH  046%=      5-min Rain = 0

Page generated in 0.0097 seconds.